Time;durP1;ratioP1;P1;durP2;ratioP2;P2;SDS_P1;SDS_P2;PMS_P1;PMS_P2;Temp;Humidity;BMP_temperature;BMP_pressure;BME280_temperature;BME280_humidity;BME280_pressure;Samples;Min_cycle;Max_cycle;Signal;HPM_P1;HPM_P2
2022/05/27 00:00:51;;;;;;;3.1;2.8;;;;;;;11.08;88.94434;95953.42;;;;
2022/05/27 00:01:52;;;;;;;3.1;2.8;;;;;;;11.08;88.94434;95953.42;;;;
2022/05/27 00:02:53;;;;;;;3.1;2.8;;;;;;;11.08;88.94434;95953.42;;;;
2022/05/27 00:03:53;;;;;;;3.1;2.8;;;;;;;11.08;88.94434;95953.42;;;;
2022/05/27 00:04:55;;;;;;;3.8;3.25;;;;;;;10.92;89.25391;95934.84;;;;
2022/05/27 00:05:55;;;;;;;3.8;3.25;;;;;;;10.92;89.25391;95934.84;;;;
2022/05/27 00:06:56;;;;;;;3.8;3.25;;;;;;;10.92;89.25391;95934.84;;;;
2022/05/27 00:07:56;;;;;;;3.8;3.25;;;;;;;10.92;89.25391;95934.84;;;;
2022/05/27 00:08:57;;;;;;;3.8;3.25;;;;;;;10.92;89.25391;95934.84;;;;
2022/05/27 00:09:58;;;;;;;3.8;3.25;;;;;;;10.92;89.25391;95934.84;;;;
2022/05/27 00:10:59;;;;;;;3.8;3.25;;;;;;;10.92;89.25391;95934.84;;;;
2022/05/27 00:12:00;;;;;;;3.8;3.25;;;;;;;10.92;89.25391;95934.84;;;;
2022/05/27 00:13:01;;;;;;;3.8;3.25;;;;;;;10.92;89.25391;95934.84;;;;
2022/05/27 00:14:03;;;;;;;3.8;3.25;;;;;;;10.92;89.25391;95934.84;;;;
2022/05/27 00:15:04;;;;;;;3.8;3.25;;;;;;;10.92;89.25391;95934.84;;;;
2022/05/27 00:16:05;;;;;;;3.4;2.65;;;;;;;10.78;89.33398;95916.77;;;;
2022/05/27 00:17:06;;;;;;;3.4;2.65;;;;;;;10.78;89.33398;95916.77;;;;
2022/05/27 00:18:07;;;;;;;3.4;2.65;;;;;;;10.78;89.33398;95916.77;;;;
2022/05/27 00:19:08;;;;;;;3.4;2.65;;;;;;;10.78;89.33398;95916.77;;;;
2022/05/27 00:20:08;;;;;;;3.4;2.65;;;;;;;10.78;89.33398;95916.77;;;;
2022/05/27 00:21:10;;;;;;;3.4;2.65;;;;;;;10.78;89.33398;95916.77;;;;
2022/05/27 00:22:10;;;;;;;3.4;2.65;;;;;;;10.78;89.33398;95916.77;;;;
2022/05/27 00:23:11;;;;;;;3.4;2.65;;;;;;;10.78;89.33398;95916.77;;;;
2022/05/27 00:24:11;;;;;;;3.4;2.65;;;;;;;10.78;89.33398;95916.77;;;;
2022/05/27 00:25:13;;;;;;;3.4;2.65;;;;;;;10.78;89.33398;95916.77;;;;
2022/05/27 00:26:14;;;;;;;3.650001;2.75;;;;;;;10.68;89.66602;95909.7;;;;
2022/05/27 00:27:14;;;;;;;3.650001;2.75;;;;;;;10.68;89.66602;95909.7;;;;
2022/05/27 00:28:15;;;;;;;3.650001;2.75;;;;;;;10.68;89.66602;95909.7;;;;
2022/05/27 00:29:15;;;;;;;3.650001;2.75;;;;;;;10.68;89.66602;95909.7;;;;
2022/05/27 00:30:16;;;;;;;3.650001;2.75;;;;;;;10.68;89.66602;95909.7;;;;
2022/05/27 00:31:20;;;;;;;3.650001;2.75;;;;;;;10.68;89.66602;95909.7;;;;
2022/05/27 00:32:21;;;;;;;3.650001;2.75;;;;;;;10.68;89.66602;95909.7;;;;
2022/05/27 00:33:21;;;;;;;3.650001;2.75;;;;;;;10.68;89.66602;95909.7;;;;
2022/05/27 00:34:23;;;;;;;3.650001;2.75;;;;;;;10.68;89.66602;95909.7;;;;
2022/05/27 00:35:23;;;;;;;3.650001;2.75;;;;;;;10.68;89.66602;95909.7;;;;
2022/05/27 00:36:25;;;;;;;3.650001;2.75;;;;;;;10.68;89.66602;95909.7;;;;
2022/05/27 00:37:25;;;;;;;3.750001;3;;;;;;;10.57;89.85742;95901.92;;;;
2022/05/27 00:38:26;;;;;;;3.750001;3;;;;;;;10.57;89.85742;95901.92;;;;
2022/05/27 00:39:26;;;;;;;3.750001;3;;;;;;;10.57;89.85742;95901.92;;;;
2022/05/27 00:40:27;;;;;;;3.750001;3;;;;;;;10.57;89.85742;95901.92;;;;
2022/05/27 00:41:36;;;;;;;3.750001;3;;;;;;;10.57;89.85742;95901.92;;;;
2022/05/27 00:42:36;;;;;;;3.750001;3;;;;;;;10.57;89.85742;95901.92;;;;
2022/05/27 00:43:39;;;;;;;3.750001;3;;;;;;;10.57;89.85742;95901.92;;;;
2022/05/27 00:44:41;;;;;;;3.750001;3;;;;;;;10.57;89.85742;95901.92;;;;
2022/05/27 00:45:41;;;;;;;3.750001;3;;;;;;;10.57;89.85742;95901.92;;;;
2022/05/27 00:46:44;;;;;;;3.750001;3;;;;;;;10.57;89.85742;95901.92;;;;
2022/05/27 00:47:46;;;;;;;2.95;2.75;;;;;;;10.47;90.03125;95894.48;;;;
2022/05/27 00:48:50;;;;;;;2.95;2.75;;;;;;;10.47;90.03125;95894.48;;;;
2022/05/27 00:49:54;;;;;;;2.95;2.75;;;;;;;10.47;90.03125;95894.48;;;;
2022/05/27 00:51:00;;;;;;;2.95;2.75;;;;;;;10.47;90.03125;95894.48;;;;
2022/05/27 00:52:01;;;;;;;2.95;2.75;;;;;;;10.47;90.03125;95894.48;;;;
2022/05/27 00:53:06;;;;;;;2.95;2.75;;;;;;;10.47;90.03125;95894.48;;;;
2022/05/27 00:54:13;;;;;;;2.95;2.75;;;;;;;10.47;90.03125;95894.48;;;;
2022/05/27 00:55:17;;;;;;;2.95;2.75;;;;;;;10.47;90.03125;95894.48;;;;
2022/05/27 00:56:22;;;;;;;2.95;2.75;;;;;;;10.47;90.03125;95894.48;;;;
2022/05/27 00:57:28;;;;;;;2.95;2.75;;;;;;;10.47;90.03125;95894.48;;;;
2022/05/27 00:58:35;;;;;;;3.6;2.8;;;;;;;10.43;90.09668;95890.08;;;;
2022/05/27 00:59:40;;;;;;;3.6;2.8;;;;;;;10.43;90.09668;95890.08;;;;
2022/05/27 01:00:45;;;;;;;3.6;2.8;;;;;;;10.43;90.09668;95890.08;;;;
2022/05/27 01:01:46;;;;;;;3.6;2.8;;;;;;;10.43;90.09668;95890.08;;;;
2022/05/27 01:02:47;;;;;;;3.6;2.8;;;;;;;10.43;90.09668;95890.08;;;;
2022/05/27 01:03:48;;;;;;;3.6;2.8;;;;;;;10.43;90.09668;95890.08;;;;
2022/05/27 01:04:49;;;;;;;3.6;2.8;;;;;;;10.43;90.09668;95890.08;;;;
2022/05/27 01:05:50;;;;;;;3.6;2.8;;;;;;;10.43;90.09668;95890.08;;;;
2022/05/27 01:06:51;;;;;;;3.6;2.8;;;;;;;10.43;90.09668;95890.08;;;;
2022/05/27 01:07:51;;;;;;;3.6;2.8;;;;;;;10.43;90.09668;95890.08;;;;
2022/05/27 01:08:55;;;;;;;3.1;2.8;;;;;;;10.37;90.06348;95890.46;;;;
2022/05/27 01:09:56;;;;;;;3.1;2.8;;;;;;;10.37;90.06348;95890.46;;;;
2022/05/27 01:10:58;;;;;;;3.1;2.8;;;;;;;10.37;90.06348;95890.46;;;;
2022/05/27 01:12:15;;;;;;;3.1;2.8;;;;;;;10.37;90.06348;95890.46;;;;
2022/05/27 01:13:35;;;;;;;3.1;2.8;;;;;;;10.37;90.06348;95890.46;;;;
2022/05/27 01:14:49;;;;;;;3.1;2.8;;;;;;;10.37;90.06348;95890.46;;;;
2022/05/27 01:16:07;;;;;;;3.1;2.8;;;;;;;10.37;90.06348;95890.46;;;;
2022/05/27 01:17:19;;;;;;;3.1;2.8;;;;;;;10.37;90.06348;95890.46;;;;
2022/05/27 01:20:18;;;;;;;3.1;2.8;;;;;;;10.37;90.06348;95890.46;;;;
2022/05/27 01:21:24;;;;;;;3.45;2.900001;;;;;;;10.29;90.13379;95894.06;;;;
2022/05/27 01:22:39;;;;;;;3.45;2.900001;;;;;;;10.29;90.13379;95894.06;;;;
2022/05/27 01:23:46;;;;;;;3.45;2.900001;;;;;;;10.29;90.13379;95894.06;;;;
2022/05/27 01:25:22;;;;;;;3.45;2.900001;;;;;;;10.29;90.13379;95894.06;;;;
2022/05/27 01:30:36;;;;;;;3.45;2.900001;;;;;;;10.29;90.13379;95894.06;;;;
2022/05/27 01:31:40;;;;;;;3.45;2.900001;;;;;;;10.29;90.13379;95894.06;;;;
2022/05/27 01:32:46;;;;;;;3.45;2.900001;;;;;;;10.29;90.13379;95894.06;;;;
2022/05/27 01:33:59;;;;;;;3.45;2.900001;;;;;;;10.29;90.13379;95894.06;;;;
2022/05/27 01:35:08;;;;;;;3.45;2.900001;;;;;;;10.29;90.13379;95894.06;;;;
2022/05/27 01:36:17;;;;;;;3.45;2.900001;;;;;;;10.29;90.13379;95894.06;;;;
2022/05/27 01:37:26;;;;;;;3.45;2.900001;;;;;;;10.29;90.13379;95894.06;;;;
2022/05/27 01:38:34;;;;;;;3.45;2.900001;;;;;;;10.29;90.13379;95894.06;;;;
2022/05/27 01:39:41;;;;;;;3.45;2.900001;;;;;;;10.29;90.13379;95894.06;;;;
2022/05/27 01:40:48;;;;;;;3.55;2.85;;;;;;;10.12;90.59961;95889.29;;;;
2022/05/27 01:42:00;;;;;;;3.55;2.85;;;;;;;10.12;90.59961;95889.29;;;;
2022/05/27 01:43:10;;;;;;;3.55;2.85;;;;;;;10.12;90.59961;95889.29;;;;
2022/05/27 01:44:17;;;;;;;3.55;2.85;;;;;;;10.12;90.59961;95889.29;;;;
2022/05/27 01:45:24;;;;;;;3.55;2.85;;;;;;;10.12;90.59961;95889.29;;;;
2022/05/27 01:46:31;;;;;;;3.55;2.85;;;;;;;10.12;90.59961;95889.29;;;;
2022/05/27 01:47:36;;;;;;;3.55;2.85;;;;;;;10.12;90.59961;95889.29;;;;
2022/05/27 01:48:41;;;;;;;3.55;2.85;;;;;;;10.12;90.59961;95889.29;;;;
2022/05/27 01:49:51;;;;;;;3.55;2.85;;;;;;;10.12;90.59961;95889.29;;;;
2022/05/27 01:50:58;;;;;;;3.55;2.85;;;;;;;10.12;90.59961;95889.29;;;;
2022/05/27 01:52:06;;;;;;;3.4;3.2;;;;;;;10.04;90.73242;95885.44;;;;
2022/05/27 01:53:14;;;;;;;3.4;3.2;;;;;;;10.04;90.73242;95885.44;;;;
2022/05/27 01:54:20;;;;;;;3.4;3.2;;;;;;;10.04;90.73242;95885.44;;;;
2022/05/27 01:55:27;;;;;;;3.4;3.2;;;;;;;10.04;90.73242;95885.44;;;;
2022/05/27 01:56:34;;;;;;;3.4;3.2;;;;;;;10.04;90.73242;95885.44;;;;
2022/05/27 01:57:41;;;;;;;3.4;3.2;;;;;;;10.04;90.73242;95885.44;;;;
2022/05/27 01:58:46;;;;;;;3.4;3.2;;;;;;;10.04;90.73242;95885.44;;;;
2022/05/27 01:59:50;;;;;;;3.4;3.2;;;;;;;10.04;90.73242;95885.44;;;;
2022/05/27 02:01:05;;;;;;;3.4;3.2;;;;;;;10.04;90.73242;95885.44;;;;
2022/05/27 02:02:10;;;;;;;3.45;3.15;;;;;;;9.97;91.01758;95896.49;;;;
2022/05/27 02:03:17;;;;;;;3.45;3.15;;;;;;;9.97;91.01758;95896.49;;;;
2022/05/27 02:04:24;;;;;;;3.45;3.15;;;;;;;9.97;91.01758;95896.49;;;;
2022/05/27 02:05:32;;;;;;;3.45;3.15;;;;;;;9.97;91.01758;95896.49;;;;
2022/05/27 02:06:39;;;;;;;3.45;3.15;;;;;;;9.97;91.01758;95896.49;;;;
2022/05/27 02:07:44;;;;;;;3.45;3.15;;;;;;;9.97;91.01758;95896.49;;;;
2022/05/27 02:08:49;;;;;;;3.45;3.15;;;;;;;9.97;91.01758;95896.49;;;;
2022/05/27 02:10:05;;;;;;;3.45;3.15;;;;;;;9.97;91.01758;95896.49;;;;
2022/05/27 02:11:11;;;;;;;3.45;3.15;;;;;;;9.97;91.01758;95896.49;;;;
2022/05/27 02:12:16;;;;;;;3.45;3.15;;;;;;;9.97;91.01758;95896.49;;;;
2022/05/27 02:13:33;;;;;;;3.45;3.15;;;;;;;9.97;91.01758;95896.49;;;;
2022/05/27 02:14:38;;;;;;;3.45;3.15;;;;;;;9.97;91.01758;95896.49;;;;
2022/05/27 02:15:45;;;;;;;3.45;3.15;;;;;;;9.97;91.01758;95896.49;;;;
2022/05/27 02:16:50;;;;;;;3.45;3.15;;;;;;;9.97;91.01758;95896.49;;;;
2022/05/27 02:17:57;;;;;;;3.45;3.15;;;;;;;9.97;91.01758;95896.49;;;;
2022/05/27 02:19:02;;;;;;;3.45;3.15;;;;;;;9.97;91.01758;95896.49;;;;
2022/05/27 02:20:08;;;;;;;3.45;3.15;;;;;;;9.97;91.01758;95896.49;;;;
2022/05/27 02:21:13;;;;;;;3.45;3.15;;;;;;;9.97;91.01758;95896.49;;;;
2022/05/27 02:22:20;;;;;;;3.45;3.15;;;;;;;9.97;91.01758;95896.49;;;;
2022/05/27 02:23:24;;;;;;;4.35;3.65;;;;;;;10.1;91.24805;95884.2;;;;
2022/05/27 02:24:36;;;;;;;4.35;3.65;;;;;;;10.1;91.24805;95884.2;;;;
2022/05/27 02:25:42;;;;;;;4.35;3.65;;;;;;;10.1;91.24805;95884.2;;;;
2022/05/27 02:26:44;;;;;;;4.35;3.65;;;;;;;10.1;91.24805;95884.2;;;;
2022/05/27 02:27:50;;;;;;;4.35;3.65;;;;;;;10.1;91.24805;95884.2;;;;
2022/05/27 02:28:55;;;;;;;4.35;3.65;;;;;;;10.1;91.24805;95884.2;;;;
2022/05/27 02:29:59;;;;;;;4.35;3.65;;;;;;;10.1;91.24805;95884.2;;;;
2022/05/27 02:31:05;;;;;;;4.35;3.65;;;;;;;10.1;91.24805;95884.2;;;;
2022/05/27 02:32:12;;;;;;;4.35;3.65;;;;;;;10.1;91.24805;95884.2;;;;
2022/05/27 02:38:37;;;;;;;4.099999;3.35;;;;;;;10.27;91.36914;95880.33;;;;
2022/05/27 02:39:38;;;;;;;4.099999;3.35;;;;;;;10.27;91.36914;95880.33;;;;
2022/05/27 02:40:39;;;;;;;4.099999;3.35;;;;;;;10.27;91.36914;95880.33;;;;
2022/05/27 02:41:46;;;;;;;4.099999;3.35;;;;;;;10.27;91.36914;95880.33;;;;
2022/05/27 02:42:56;;;;;;;4.099999;3.35;;;;;;;10.27;91.36914;95880.33;;;;
2022/05/27 02:44:08;;;;;;;4.099999;3.35;;;;;;;10.27;91.36914;95880.33;;;;
2022/05/27 02:45:22;;;;;;;3.95;3.55;;;;;;;10.55;91.65234;95885.06;;;;
2022/05/27 02:46:29;;;;;;;3.95;3.55;;;;;;;10.55;91.65234;95885.06;;;;
2022/05/27 02:47:37;;;;;;;3.95;3.55;;;;;;;10.55;91.65234;95885.06;;;;
2022/05/27 02:48:45;;;;;;;3.95;3.55;;;;;;;10.55;91.65234;95885.06;;;;
2022/05/27 02:49:56;;;;;;;3.95;3.55;;;;;;;10.55;91.65234;95885.06;;;;
2022/05/27 02:51:04;;;;;;;3.95;3.55;;;;;;;10.55;91.65234;95885.06;;;;
2022/05/27 02:52:17;;;;;;;3.95;3.55;;;;;;;10.55;91.65234;95885.06;;;;
2022/05/27 02:53:27;;;;;;;3.95;3.55;;;;;;;10.55;91.65234;95885.06;;;;
2022/05/27 02:54:36;;;;;;;3.95;3.55;;;;;;;10.55;91.65234;95885.06;;;;
2022/05/27 02:55:46;;;;;;;4;3.6;;;;;;;10.92;91.75195;95879.71;;;;
2022/05/27 02:57:00;;;;;;;4;3.6;;;;;;;10.92;91.75195;95879.71;;;;
2022/05/27 02:58:06;;;;;;;4;3.6;;;;;;;10.92;91.75195;95879.71;;;;
2022/05/27 02:59:06;;;;;;;4;3.6;;;;;;;10.92;91.75195;95879.71;;;;
2022/05/27 03:00:10;;;;;;;4;3.6;;;;;;;10.92;91.75195;95879.71;;;;
2022/05/27 03:01:16;;;;;;;4;3.6;;;;;;;10.92;91.75195;95879.71;;;;
2022/05/27 03:02:17;;;;;;;4;3.6;;;;;;;10.92;91.75195;95879.71;;;;
2022/05/27 03:03:17;;;;;;;4;3.6;;;;;;;10.92;91.75195;95879.71;;;;
2022/05/27 03:04:18;;;;;;;4;3.6;;;;;;;10.92;91.75195;95879.71;;;;
2022/05/27 03:05:20;;;;;;;4;3.6;;;;;;;10.92;91.75195;95879.71;;;;
2022/05/27 03:06:25;;;;;;;3.95;3.55;;;;;;;11.27;91.65332;95886.08;;;;
2022/05/27 03:07:41;;;;;;;3.95;3.55;;;;;;;11.27;91.65332;95886.08;;;;
2022/05/27 03:08:56;;;;;;;3.95;3.55;;;;;;;11.27;91.65332;95886.08;;;;
2022/05/27 03:10:07;;;;;;;3.95;3.55;;;;;;;11.27;91.65332;95886.08;;;;
2022/05/27 03:11:22;;;;;;;3.95;3.55;;;;;;;11.27;91.65332;95886.08;;;;
2022/05/27 03:12:33;;;;;;;3.95;3.55;;;;;;;11.27;91.65332;95886.08;;;;
2022/05/27 03:13:49;;;;;;;3.95;3.55;;;;;;;11.27;91.65332;95886.08;;;;
2022/05/27 03:15:07;;;;;;;3.95;3.55;;;;;;;11.27;91.65332;95886.08;;;;
2022/05/27 03:16:20;;;;;;;3.95;3.55;;;;;;;11.27;91.65332;95886.08;;;;
2022/05/27 03:17:28;;;;;;;3.5;3.2;;;;;;;11.55;91.60449;95880.53;;;;
2022/05/27 03:18:43;;;;;;;3.5;3.2;;;;;;;11.55;91.60449;95880.53;;;;
2022/05/27 03:19:59;;;;;;;3.5;3.2;;;;;;;11.55;91.60449;95880.53;;;;
2022/05/27 03:21:14;;;;;;;3.5;3.2;;;;;;;11.55;91.60449;95880.53;;;;
2022/05/27 03:22:22;;;;;;;3.5;3.2;;;;;;;11.55;91.60449;95880.53;;;;
2022/05/27 03:23:33;;;;;;;3.5;3.2;;;;;;;11.55;91.60449;95880.53;;;;
2022/05/27 03:24:47;;;;;;;3.5;3.2;;;;;;;11.55;91.60449;95880.53;;;;
2022/05/27 03:26:02;;;;;;;3.5;3.2;;;;;;;11.55;91.60449;95880.53;;;;
2022/05/27 03:27:17;;;;;;;3.5;3.2;;;;;;;11.55;91.60449;95880.53;;;;
2022/05/27 03:28:28;;;;;;;3.3;3;;;;;;;11.79;91.5459;95883.51;;;;
2022/05/27 03:29:36;;;;;;;3.3;3;;;;;;;11.79;91.5459;95883.51;;;;
2022/05/27 03:30:44;;;;;;;3.3;3;;;;;;;11.79;91.5459;95883.51;;;;
2022/05/27 03:31:54;;;;;;;3.3;3;;;;;;;11.79;91.5459;95883.51;;;;
2022/05/27 03:33:01;;;;;;;3.3;3;;;;;;;11.79;91.5459;95883.51;;;;
2022/05/27 03:34:14;;;;;;;3.3;3;;;;;;;11.79;91.5459;95883.51;;;;
2022/05/27 03:35:23;;;;;;;3.3;3;;;;;;;11.79;91.5459;95883.51;;;;
2022/05/27 03:36:34;;;;;;;3.3;3;;;;;;;11.79;91.5459;95883.51;;;;
2022/05/27 03:37:42;;;;;;;3.3;3;;;;;;;11.79;91.5459;95883.51;;;;
2022/05/27 03:38:50;;;;;;;3;2.8;;;;;;;12.03;91.56445;95879.4;;;;
2022/05/27 03:39:59;;;;;;;3;2.8;;;;;;;12.03;91.56445;95879.4;;;;
2022/05/27 03:41:06;;;;;;;3;2.8;;;;;;;12.03;91.56445;95879.4;;;;
2022/05/27 03:42:15;;;;;;;3;2.8;;;;;;;12.03;91.56445;95879.4;;;;
2022/05/27 03:43:18;;;;;;;3;2.8;;;;;;;12.03;91.56445;95879.4;;;;
2022/05/27 03:44:19;;;;;;;3;2.8;;;;;;;12.03;91.56445;95879.4;;;;
2022/05/27 03:45:22;;;;;;;3;2.8;;;;;;;12.03;91.56445;95879.4;;;;
2022/05/27 03:46:24;;;;;;;3;2.8;;;;;;;12.03;91.56445;95879.4;;;;
2022/05/27 03:47:28;;;;;;;3;2.8;;;;;;;12.03;91.56445;95879.4;;;;
2022/05/27 03:48:29;;;;;;;3;2.8;;;;;;;12.03;91.56445;95879.4;;;;
2022/05/27 03:49:32;;;;;;;2.9;2.7;;;;;;;12.31;91.52441;95886.19;;;;
2022/05/27 03:50:32;;;;;;;2.9;2.7;;;;;;;12.31;91.52441;95886.19;;;;
2022/05/27 03:51:33;;;;;;;2.9;2.7;;;;;;;12.31;91.52441;95886.19;;;;
2022/05/27 03:52:38;;;;;;;2.9;2.7;;;;;;;12.31;91.52441;95886.19;;;;
2022/05/27 03:54:14;;;;;;;2.9;2.7;;;;;;;12.31;91.52441;95886.19;;;;
2022/05/27 03:55:15;;;;;;;2.9;2.7;;;;;;;12.31;91.52441;95886.19;;;;
2022/05/27 03:56:18;;;;;;;2.9;2.7;;;;;;;12.31;91.52441;95886.19;;;;
2022/05/27 03:57:20;;;;;;;2.9;2.7;;;;;;;12.31;91.52441;95886.19;;;;
2022/05/27 03:58:21;;;;;;;2.9;2.7;;;;;;;12.31;91.52441;95886.19;;;;
2022/05/27 03:59:22;;;;;;;2.9;2.7;;;;;;;12.31;91.52441;95886.19;;;;
2022/05/27 04:00:22;;;;;;;4.300001;2.6;;;;;;;12.58;91.40039;95892.53;;;;
2022/05/27 04:01:24;;;;;;;4.300001;2.6;;;;;;;12.58;91.40039;95892.53;;;;
2022/05/27 04:02:27;;;;;;;4.300001;2.6;;;;;;;12.58;91.40039;95892.53;;;;
2022/05/27 04:03:27;;;;;;;4.300001;2.6;;;;;;;12.58;91.40039;95892.53;;;;
2022/05/27 04:04:28;;;;;;;4.300001;2.6;;;;;;;12.58;91.40039;95892.53;;;;
2022/05/27 04:05:29;;;;;;;4.300001;2.6;;;;;;;12.58;91.40039;95892.53;;;;
2022/05/27 04:06:30;;;;;;;4.300001;2.6;;;;;;;12.58;91.40039;95892.53;;;;
2022/05/27 04:07:31;;;;;;;4.300001;2.6;;;;;;;12.58;91.40039;95892.53;;;;
2022/05/27 04:08:31;;;;;;;4.300001;2.6;;;;;;;12.58;91.40039;95892.53;;;;
2022/05/27 04:09:33;;;;;;;4.300001;2.6;;;;;;;12.58;91.40039;95892.53;;;;
2022/05/27 04:10:34;;;;;;;3.1;2.4;;;;;;;12.82;91.22461;95887.84;;;;
2022/05/27 04:11:34;;;;;;;3.1;2.4;;;;;;;12.82;91.22461;95887.84;;;;
2022/05/27 04:12:35;;;;;;;3.1;2.4;;;;;;;12.82;91.22461;95887.84;;;;
2022/05/27 04:13:36;;;;;;;3.1;2.4;;;;;;;12.82;91.22461;95887.84;;;;
2022/05/27 04:14:37;;;;;;;3.1;2.4;;;;;;;12.82;91.22461;95887.84;;;;
2022/05/27 04:15:37;;;;;;;3.1;2.4;;;;;;;12.82;91.22461;95887.84;;;;
2022/05/27 04:16:38;;;;;;;3.1;2.4;;;;;;;12.82;91.22461;95887.84;;;;
2022/05/27 04:17:41;;;;;;;3.1;2.4;;;;;;;12.82;91.22461;95887.84;;;;
2022/05/27 04:18:41;;;;;;;3.1;2.4;;;;;;;12.82;91.22461;95887.84;;;;
2022/05/27 04:19:42;;;;;;;3.1;2.4;;;;;;;12.82;91.22461;95887.84;;;;
2022/05/27 04:20:43;;;;;;;3.1;2.4;;;;;;;12.82;91.22461;95887.84;;;;
2022/05/27 04:21:44;;;;;;;2.65;2.45;;;;;;;13.14;91.21582;95886.52;;;;
2022/05/27 04:22:45;;;;;;;2.65;2.45;;;;;;;13.14;91.21582;95886.52;;;;
2022/05/27 04:23:45;;;;;;;2.65;2.45;;;;;;;13.14;91.21582;95886.52;;;;
2022/05/27 04:24:46;;;;;;;2.65;2.45;;;;;;;13.14;91.21582;95886.52;;;;
2022/05/27 04:25:47;;;;;;;2.65;2.45;;;;;;;13.14;91.21582;95886.52;;;;
2022/05/27 04:26:49;;;;;;;2.65;2.45;;;;;;;13.14;91.21582;95886.52;;;;
2022/05/27 04:27:50;;;;;;;2.65;2.45;;;;;;;13.14;91.21582;95886.52;;;;
2022/05/27 04:28:50;;;;;;;2.65;2.45;;;;;;;13.14;91.21582;95886.52;;;;
2022/05/27 04:29:51;;;;;;;2.65;2.45;;;;;;;13.14;91.21582;95886.52;;;;
2022/05/27 04:30:52;;;;;;;2.65;2.45;;;;;;;13.14;91.21582;95886.52;;;;
2022/05/27 04:31:53;;;;;;;2.7;2.45;;;;;;;13.46;91.01172;95893.47;;;;
2022/05/27 04:32:53;;;;;;;2.7;2.45;;;;;;;13.46;91.01172;95893.47;;;;
2022/05/27 04:33:55;;;;;;;2.7;2.45;;;;;;;13.46;91.01172;95893.47;;;;
2022/05/27 04:34:55;;;;;;;2.7;2.45;;;;;;;13.46;91.01172;95893.47;;;;
2022/05/27 04:35:56;;;;;;;2.7;2.45;;;;;;;13.46;91.01172;95893.47;;;;
2022/05/27 04:36:59;;;;;;;2.7;2.45;;;;;;;13.46;91.01172;95893.47;;;;
2022/05/27 04:38:00;;;;;;;2.7;2.45;;;;;;;13.46;91.01172;95893.47;;;;
2022/05/27 04:39:01;;;;;;;2.7;2.45;;;;;;;13.46;91.01172;95893.47;;;;
2022/05/27 04:40:01;;;;;;;2.7;2.45;;;;;;;13.46;91.01172;95893.47;;;;
2022/05/27 04:41:03;;;;;;;2.7;2.45;;;;;;;13.46;91.01172;95893.47;;;;
2022/05/27 04:42:04;;;;;;;2.7;2.45;;;;;;;13.46;91.01172;95893.47;;;;
2022/05/27 04:43:06;;;;;;;2.95;2.75;;;;;;;13.7;90.7373;95883.5;;;;
2022/05/27 04:44:07;;;;;;;2.95;2.75;;;;;;;13.7;90.7373;95883.5;;;;
2022/05/27 04:45:07;;;;;;;2.95;2.75;;;;;;;13.7;90.7373;95883.5;;;;
2022/05/27 04:46:08;;;;;;;2.95;2.75;;;;;;;13.7;90.7373;95883.5;;;;
2022/05/27 04:47:09;;;;;;;2.95;2.75;;;;;;;13.7;90.7373;95883.5;;;;
2022/05/27 04:48:10;;;;;;;2.95;2.75;;;;;;;13.7;90.7373;95883.5;;;;
2022/05/27 04:49:50;;;;;;;2.95;2.75;;;;;;;13.7;90.7373;95883.5;;;;
2022/05/27 04:50:51;;;;;;;2.95;2.75;;;;;;;13.7;90.7373;95883.5;;;;
2022/05/27 04:51:51;;;;;;;2.95;2.75;;;;;;;13.7;90.7373;95883.5;;;;
2022/05/27 04:52:52;;;;;;;2.6;2.4;;;;;;;14.04;90.80859;95882.48;;;;
2022/05/27 04:53:53;;;;;;;2.6;2.4;;;;;;;14.04;90.80859;95882.48;;;;
2022/05/27 04:54:53;;;;;;;2.6;2.4;;;;;;;14.04;90.80859;95882.48;;;;
2022/05/27 04:55:57;;;;;;;2.6;2.4;;;;;;;14.04;90.80859;95882.48;;;;
2022/05/27 04:56:58;;;;;;;2.6;2.4;;;;;;;14.04;90.80859;95882.48;;;;
2022/05/27 04:57:59;;;;;;;2.6;2.4;;;;;;;14.04;90.80859;95882.48;;;;
2022/05/27 04:59:00;;;;;;;2.6;2.4;;;;;;;14.04;90.80859;95882.48;;;;
2022/05/27 05:00:01;;;;;;;2.6;2.4;;;;;;;14.04;90.80859;95882.48;;;;
2022/05/27 05:01:07;;;;;;;2.6;2.4;;;;;;;14.04;90.80859;95882.48;;;;
2022/05/27 05:02:08;;;;;;;2.6;2.4;;;;;;;14.04;90.80859;95882.48;;;;
2022/05/27 05:03:08;;;;;;;2.6;2.4;;;;;;;14.04;90.80859;95882.48;;;;
2022/05/27 05:04:09;;;;;;;2.6;2.4;;;;;;;14.04;90.80859;95882.48;;;;
2022/05/27 05:05:10;;;;;;;2.6;2.4;;;;;;;14.04;90.80859;95882.48;;;;
2022/05/27 05:06:12;;;;;;;2.6;2.4;;;;;;;14.04;90.80859;95882.48;;;;
2022/05/27 05:07:13;;;;;;;2.6;2.4;;;;;;;14.04;90.80859;95882.48;;;;
2022/05/27 05:08:14;;;;;;;2.6;2.4;;;;;;;14.04;90.80859;95882.48;;;;
2022/05/27 05:09:25;;;;;;;2.6;2.4;;;;;;;14.04;90.80859;95882.48;;;;
2022/05/27 05:10:26;;;;;;;2.6;2.4;;;;;;;14.04;90.80859;95882.48;;;;
2022/05/27 05:11:27;;;;;;;2.6;2.4;;;;;;;14.04;90.80859;95882.48;;;;
2022/05/27 05:12:28;;;;;;;2.6;2.4;;;;;;;14.04;90.80859;95882.48;;;;
2022/05/27 05:13:29;;;;;;;2.6;2.4;;;;;;;14.04;90.80859;95882.48;;;;
2022/05/27 05:14:30;;;;;;;2.85;2.4;;;;;;;14.81;89.90527;95868.19;;;;
2022/05/27 05:15:30;;;;;;;2.85;2.4;;;;;;;14.81;89.90527;95868.19;;;;
2022/05/27 05:16:31;;;;;;;2.85;2.4;;;;;;;14.81;89.90527;95868.19;;;;
2022/05/27 05:17:31;;;;;;;2.85;2.4;;;;;;;14.81;89.90527;95868.19;;;;
2022/05/27 05:18:32;;;;;;;2.85;2.4;;;;;;;14.81;89.90527;95868.19;;;;
2022/05/27 05:19:33;;;;;;;2.85;2.4;;;;;;;14.81;89.90527;95868.19;;;;
2022/05/27 05:20:34;;;;;;;2.85;2.4;;;;;;;14.81;89.90527;95868.19;;;;
2022/05/27 05:21:36;;;;;;;2.85;2.4;;;;;;;14.81;89.90527;95868.19;;;;
2022/05/27 05:22:37;;;;;;;2.85;2.4;;;;;;;14.81;89.90527;95868.19;;;;
2022/05/27 05:23:37;;;;;;;2.85;2.4;;;;;;;14.81;89.90527;95868.19;;;;
2022/05/27 05:24:38;;;;;;;2.85;2.4;;;;;;;14.81;89.90527;95868.19;;;;
2022/05/27 05:25:39;;;;;;;4.35;2.5;;;;;;;15.36;89.44336;95861.71;;;;
2022/05/27 05:26:39;;;;;;;4.35;2.5;;;;;;;15.36;89.44336;95861.71;;;;
2022/05/27 05:27:40;;;;;;;4.35;2.5;;;;;;;15.36;89.44336;95861.71;;;;
2022/05/27 05:28:42;;;;;;;4.35;2.5;;;;;;;15.36;89.44336;95861.71;;;;
2022/05/27 05:29:42;;;;;;;4.35;2.5;;;;;;;15.36;89.44336;95861.71;;;;
2022/05/27 05:30:43;;;;;;;4.35;2.5;;;;;;;15.36;89.44336;95861.71;;;;
2022/05/27 05:31:43;;;;;;;4.35;2.5;;;;;;;15.36;89.44336;95861.71;;;;
2022/05/27 05:32:44;;;;;;;4.35;2.5;;;;;;;15.36;89.44336;95861.71;;;;
2022/05/27 05:33:44;;;;;;;4.35;2.5;;;;;;;15.36;89.44336;95861.71;;;;
2022/05/27 05:34:45;;;;;;;4.35;2.5;;;;;;;15.36;89.44336;95861.71;;;;
2022/05/27 05:35:46;;;;;;;3.4;2.45;;;;;;;15.87;88.64551;95849.17;;;;
2022/05/27 05:36:47;;;;;;;3.4;2.45;;;;;;;15.87;88.64551;95849.17;;;;
2022/05/27 05:37:47;;;;;;;3.4;2.45;;;;;;;15.87;88.64551;95849.17;;;;
2022/05/27 05:38:48;;;;;;;3.4;2.45;;;;;;;15.87;88.64551;95849.17;;;;
2022/05/27 05:39:49;;;;;;;3.4;2.45;;;;;;;15.87;88.64551;95849.17;;;;
2022/05/27 05:40:49;;;;;;;3.4;2.45;;;;;;;15.87;88.64551;95849.17;;;;
2022/05/27 05:41:50;;;;;;;3.4;2.45;;;;;;;15.87;88.64551;95849.17;;;;
2022/05/27 05:42:56;;;;;;;3.4;2.45;;;;;;;15.87;88.64551;95849.17;;;;
2022/05/27 05:43:57;;;;;;;3.4;2.45;;;;;;;15.87;88.64551;95849.17;;;;
2022/05/27 05:44:59;;;;;;;3.4;2.45;;;;;;;15.87;88.64551;95849.17;;;;
2022/05/27 05:45:59;;;;;;;3.4;2.45;;;;;;;15.87;88.64551;95849.17;;;;
2022/05/27 05:47:00;;;;;;;3.65;2.5;;;;;;;16.09;87.875;95845.79;;;;
2022/05/27 05:48:02;;;;;;;3.65;2.5;;;;;;;16.09;87.875;95845.79;;;;
2022/05/27 05:49:05;;;;;;;3.65;2.5;;;;;;;16.09;87.875;95845.79;;;;
2022/05/27 05:50:05;;;;;;;3.65;2.5;;;;;;;16.09;87.875;95845.79;;;;
2022/05/27 05:51:07;;;;;;;3.65;2.5;;;;;;;16.09;87.875;95845.79;;;;
2022/05/27 05:52:07;;;;;;;3.65;2.5;;;;;;;16.09;87.875;95845.79;;;;
2022/05/27 05:53:08;;;;;;;3.65;2.5;;;;;;;16.09;87.875;95845.79;;;;
2022/05/27 05:54:08;;;;;;;3.65;2.5;;;;;;;16.09;87.875;95845.79;;;;
2022/05/27 05:55:09;;;;;;;3.65;2.5;;;;;;;16.09;87.875;95845.79;;;;
2022/05/27 05:56:12;;;;;;;3.65;2.5;;;;;;;16.09;87.875;95845.79;;;;
2022/05/27 05:57:12;;;;;;;3.65;2.5;;;;;;;16.09;87.875;95845.79;;;;
2022/05/27 05:58:13;;;;;;;3.65;2.5;;;;;;;16.09;87.875;95845.79;;;;
2022/05/27 05:59:14;;;;;;;3.65;2.5;;;;;;;16.09;87.875;95845.79;;;;
2022/05/27 06:00:16;;;;;;;3.65;2.5;;;;;;;16.09;87.875;95845.79;;;;
2022/05/27 06:01:20;;;;;;;3.65;2.5;;;;;;;16.09;87.875;95845.79;;;;
2022/05/27 06:02:21;;;;;;;3.65;2.5;;;;;;;16.09;87.875;95845.79;;;;
2022/05/27 06:03:21;;;;;;;3.65;2.5;;;;;;;16.09;87.875;95845.79;;;;
2022/05/27 06:04:22;;;;;;;3.65;2.5;;;;;;;16.09;87.875;95845.79;;;;
2022/05/27 06:05:22;;;;;;;3.65;2.5;;;;;;;16.09;87.875;95845.79;;;;
2022/05/27 06:06:24;;;;;;;3.65;2.5;;;;;;;16.09;87.875;95845.79;;;;
2022/05/27 06:07:25;;;;;;;3.65;2.5;;;;;;;16.09;87.875;95845.79;;;;
2022/05/27 06:08:28;;;;;;;2.25;2.05;;;;;;;16.34;87.45801;95850.8;;;;
2022/05/27 06:09:30;;;;;;;2.25;2.05;;;;;;;16.34;87.45801;95850.8;;;;
2022/05/27 06:10:31;;;;;;;2.25;2.05;;;;;;;16.34;87.45801;95850.8;;;;
2022/05/27 06:11:31;;;;;;;2.25;2.05;;;;;;;16.34;87.45801;95850.8;;;;
2022/05/27 06:12:33;;;;;;;2.25;2.05;;;;;;;16.34;87.45801;95850.8;;;;
2022/05/27 06:13:35;;;;;;;2.25;2.05;;;;;;;16.34;87.45801;95850.8;;;;
2022/05/27 06:14:37;;;;;;;2.25;2.05;;;;;;;16.34;87.45801;95850.8;;;;
2022/05/27 06:15:37;;;;;;;2.25;2.05;;;;;;;16.34;87.45801;95850.8;;;;
2022/05/27 06:16:38;;;;;;;2.25;2.05;;;;;;;16.34;87.45801;95850.8;;;;
2022/05/27 06:17:38;;;;;;;2.25;2.05;;;;;;;16.34;87.45801;95850.8;;;;
2022/05/27 06:18:39;;;;;;;3.2;2.2;;;;;;;16.54;87.19434;95845.4;;;;
2022/05/27 06:19:40;;;;;;;3.2;2.2;;;;;;;16.54;87.19434;95845.4;;;;
2022/05/27 06:20:40;;;;;;;3.2;2.2;;;;;;;16.54;87.19434;95845.4;;;;